sensor_id;sensor_type;location;lat;lon;timestamp;P1;durP1;ratioP1;P2;durP2;ratioP2
16063;SDS011;8136;53.172;8.256;2023-01-08T00:00:02;2.70;;;2.50;;
16063;SDS011;8136;53.172;8.256;2023-01-08T00:02:31;4.80;;;3.00;;
16063;SDS011;8136;53.172;8.256;2023-01-08T00:04:58;3.10;;;2.80;;
16063;SDS011;8136;53.172;8.256;2023-01-08T00:07:25;4.37;;;3.10;;
16063;SDS011;8136;53.172;8.256;2023-01-08T00:09:52;4.27;;;3.03;;
16063;SDS011;8136;53.172;8.256;2023-01-08T00:12:19;4.63;;;3.00;;
16063;SDS011;8136;53.172;8.256;2023-01-08T00:14:45;3.50;;;2.80;;
16063;SDS011;8136;53.172;8.256;2023-01-08T00:17:12;3.50;;;2.87;;
16063;SDS011;8136;53.172;8.256;2023-01-08T00:19:40;3.33;;;2.80;;
16063;SDS011;8136;53.172;8.256;2023-01-08T00:22:07;3.87;;;2.80;;
16063;SDS011;8136;53.172;8.256;2023-01-08T00:24:34;3.57;;;3.20;;
16063;SDS011;8136;53.172;8.256;2023-01-08T00:27:00;3.40;;;2.83;;
16063;SDS011;8136;53.172;8.256;2023-01-08T00:29:27;3.40;;;3.10;;
16063;SDS011;8136;53.172;8.256;2023-01-08T00:31:54;3.43;;;3.13;;
16063;SDS011;8136;53.172;8.256;2023-01-08T00:34:21;3.20;;;2.90;;
16063;SDS011;8136;53.172;8.256;2023-01-08T00:36:49;3.50;;;3.10;;
16063;SDS011;8136;53.172;8.256;2023-01-08T00:39:16;3.47;;;3.17;;
16063;SDS011;8136;53.172;8.256;2023-01-08T00:41:42;3.57;;;2.90;;
16063;SDS011;8136;53.172;8.256;2023-01-08T00:44:09;3.40;;;2.93;;
16063;SDS011;8136;53.172;8.256;2023-01-08T00:46:36;4.23;;;2.97;;
16063;SDS011;8136;53.172;8.256;2023-01-08T00:49:03;3.33;;;2.90;;
16063;SDS011;8136;53.172;8.256;2023-01-08T00:51:30;3.17;;;2.70;;
16063;SDS011;8136;53.172;8.256;2023-01-08T00:53:58;4.23;;;2.93;;
16063;SDS011;8136;53.172;8.256;2023-01-08T00:56:24;3.77;;;3.00;;
16063;SDS011;8136;53.172;8.256;2023-01-08T00:58:51;3.23;;;2.93;;
16063;SDS011;8136;53.172;8.256;2023-01-08T01:01:18;3.20;;;2.90;;
16063;SDS011;8136;53.172;8.256;2023-01-08T01:03:45;3.27;;;2.93;;
16063;SDS011;8136;53.172;8.256;2023-01-08T01:06:12;3.20;;;2.90;;
16063;SDS011;8136;53.172;8.256;2023-01-08T01:08:39;3.40;;;3.10;;
16063;SDS011;8136;53.172;8.256;2023-01-08T01:11:10;5.67;;;3.03;;
16063;SDS011;8136;53.172;8.256;2023-01-08T01:13:42;3.37;;;3.07;;
16063;SDS011;8136;53.172;8.256;2023-01-08T01:16:09;3.77;;;3.03;;
16063;SDS011;8136;53.172;8.256;2023-01-08T01:18:35;6.23;;;2.80;;
16063;SDS011;8136;53.172;8.256;2023-01-08T01:21:08;3.57;;;3.27;;
16063;SDS011;8136;53.172;8.256;2023-01-08T01:23:36;3.70;;;3.40;;
16063;SDS011;8136;53.172;8.256;2023-01-08T01:26:02;3.20;;;2.90;;
16063;SDS011;8136;53.172;8.256;2023-01-08T01:28:31;4.37;;;3.23;;
16063;SDS011;8136;53.172;8.256;2023-01-08T01:30:57;4.63;;;3.10;;
16063;SDS011;8136;53.172;8.256;2023-01-08T01:33:24;3.20;;;2.60;;
16063;SDS011;8136;53.172;8.256;2023-01-08T01:36:00;4.47;;;3.13;;
16063;SDS011;8136;53.172;8.256;2023-01-08T01:38:27;4.00;;;3.10;;
16063;SDS011;8136;53.172;8.256;2023-01-08T01:40:55;3.43;;;3.13;;
16063;SDS011;8136;53.172;8.256;2023-01-08T01:43:36;5.30;;;3.33;;
16063;SDS011;8136;53.172;8.256;2023-01-08T01:46:05;2.93;;;2.70;;
16063;SDS011;8136;53.172;8.256;2023-01-08T01:48:40;3.70;;;3.13;;
16063;SDS011;8136;53.172;8.256;2023-01-08T01:51:07;3.77;;;2.90;;
16063;SDS011;8136;53.172;8.256;2023-01-08T01:53:34;3.27;;;2.97;;
16063;SDS011;8136;53.172;8.256;2023-01-08T01:56:02;4.77;;;3.13;;
16063;SDS011;8136;53.172;8.256;2023-01-08T01:58:30;3.40;;;3.10;;
16063;SDS011;8136;53.172;8.256;2023-01-08T02:01:01;3.40;;;2.70;;
16063;SDS011;8136;53.172;8.256;2023-01-08T02:03:32;3.40;;;3.07;;
16063;SDS011;8136;53.172;8.256;2023-01-08T02:06:02;3.73;;;3.43;;
16063;SDS011;8136;53.172;8.256;2023-01-08T02:08:35;3.43;;;3.13;;
16063;SDS011;8136;53.172;8.256;2023-01-08T02:11:08;5.07;;;3.53;;
16063;SDS011;8136;53.172;8.256;2023-01-08T02:13:38;3.37;;;3.07;;
16063;SDS011;8136;53.172;8.256;2023-01-08T02:16:10;3.97;;;3.40;;
16063;SDS011;8136;53.172;8.256;2023-01-08T02:18:42;3.53;;;3.23;;
16063;SDS011;8136;53.172;8.256;2023-01-08T02:21:12;4.40;;;3.00;;
16063;SDS011;8136;53.172;8.256;2023-01-08T02:23:45;3.87;;;3.30;;
16063;SDS011;8136;53.172;8.256;2023-01-08T02:26:20;4.10;;;3.60;;
16063;SDS011;8136;53.172;8.256;2023-01-08T02:28:53;4.57;;;3.30;;
16063;SDS011;8136;53.172;8.256;2023-01-08T02:31:24;4.27;;;3.17;;
16063;SDS011;8136;53.172;8.256;2023-01-08T02:33:53;3.50;;;3.20;;
16063;SDS011;8136;53.172;8.256;2023-01-08T02:36:24;4.20;;;3.37;;
16063;SDS011;8136;53.172;8.256;2023-01-08T02:38:58;4.30;;;3.30;;
16063;SDS011;8136;53.172;8.256;2023-01-08T02:42:04;4.43;;;3.70;;
16063;SDS011;8136;53.172;8.256;2023-01-08T02:44:36;3.87;;;3.40;;
16063;SDS011;8136;53.172;8.256;2023-01-08T02:47:15;5.00;;;4.00;;
16063;SDS011;8136;53.172;8.256;2023-01-08T02:49:48;3.43;;;3.13;;
16063;SDS011;8136;53.172;8.256;2023-01-08T02:52:20;3.77;;;3.37;;
16063;SDS011;8136;53.172;8.256;2023-01-08T02:54:48;3.70;;;3.40;;
16063;SDS011;8136;53.172;8.256;2023-01-08T02:57:16;4.20;;;3.70;;
16063;SDS011;8136;53.172;8.256;2023-01-08T02:59:45;3.97;;;3.30;;
16063;SDS011;8136;53.172;8.256;2023-01-08T03:02:14;4.77;;;3.57;;
16063;SDS011;8136;53.172;8.256;2023-01-08T03:04:42;4.13;;;3.77;;
16063;SDS011;8136;53.172;8.256;2023-01-08T03:07:14;4.07;;;3.70;;
16063;SDS011;8136;53.172;8.256;2023-01-08T03:09:40;3.70;;;3.40;;
16063;SDS011;8136;53.172;8.256;2023-01-08T03:12:09;5.50;;;3.80;;
16063;SDS011;8136;53.172;8.256;2023-01-08T03:14:45;3.77;;;3.30;;
16063;SDS011;8136;53.172;8.256;2023-01-08T03:17:17;3.83;;;3.43;;
16063;SDS011;8136;53.172;8.256;2023-01-08T03:19:48;3.50;;;3.20;;
16063;SDS011;8136;53.172;8.256;2023-01-08T03:22:18;4.53;;;3.27;;
16063;SDS011;8136;53.172;8.256;2023-01-08T03:24:47;4.17;;;3.50;;
16063;SDS011;8136;53.172;8.256;2023-01-08T03:27:18;3.33;;;3.03;;
16063;SDS011;8136;53.172;8.256;2023-01-08T03:29:50;4.07;;;3.30;;
16063;SDS011;8136;53.172;8.256;2023-01-08T03:32:19;3.83;;;3.53;;
16063;SDS011;8136;53.172;8.256;2023-01-08T03:34:48;4.93;;;3.20;;
16063;SDS011;8136;53.172;8.256;2023-01-08T03:37:19;3.77;;;3.37;;
16063;SDS011;8136;53.172;8.256;2023-01-08T03:39:51;4.03;;;3.43;;
16063;SDS011;8136;53.172;8.256;2023-01-08T03:42:22;3.47;;;3.17;;
16063;SDS011;8136;53.172;8.256;2023-01-08T03:44:51;4.33;;;3.47;;
16063;SDS011;8136;53.172;8.256;2023-01-08T03:47:18;4.13;;;3.23;;
16063;SDS011;8136;53.172;8.256;2023-01-08T03:49:47;3.93;;;3.50;;
16063;SDS011;8136;53.172;8.256;2023-01-08T03:52:22;6.37;;;3.53;;
16063;SDS011;8136;53.172;8.256;2023-01-08T03:54:50;3.83;;;3.43;;
16063;SDS011;8136;53.172;8.256;2023-01-08T03:57:17;4.23;;;3.30;;
16063;SDS011;8136;53.172;8.256;2023-01-08T03:59:44;4.10;;;3.47;;
16063;SDS011;8136;53.172;8.256;2023-01-08T04:02:13;3.67;;;3.07;;
16063;SDS011;8136;53.172;8.256;2023-01-08T04:04:40;3.93;;;3.30;;
16063;SDS011;8136;53.172;8.256;2023-01-08T04:07:08;3.97;;;3.57;;
16063;SDS011;8136;53.172;8.256;2023-01-08T04:09:35;4.23;;;3.27;;
16063;SDS011;8136;53.172;8.256;2023-01-08T04:12:02;3.50;;;3.20;;
16063;SDS011;8136;53.172;8.256;2023-01-08T04:14:29;3.83;;;3.30;;
16063;SDS011;8136;53.172;8.256;2023-01-08T04:16:56;4.80;;;3.60;;
16063;SDS011;8136;53.172;8.256;2023-01-08T04:19:24;3.23;;;2.63;;
16063;SDS011;8136;53.172;8.256;2023-01-08T04:21:51;5.43;;;3.10;;
16063;SDS011;8136;53.172;8.256;2023-01-08T04:24:18;3.87;;;3.30;;
16063;SDS011;8136;53.172;8.256;2023-01-08T04:26:45;3.37;;;3.07;;
16063;SDS011;8136;53.172;8.256;2023-01-08T04:29:12;4.20;;;3.43;;
16063;SDS011;8136;53.172;8.256;2023-01-08T04:31:39;5.73;;;3.03;;
16063;SDS011;8136;53.172;8.256;2023-01-08T04:34:06;5.73;;;3.40;;
16063;SDS011;8136;53.172;8.256;2023-01-08T04:36:34;4.30;;;3.10;;
16063;SDS011;8136;53.172;8.256;2023-01-08T04:39:01;3.10;;;2.80;;
16063;SDS011;8136;53.172;8.256;2023-01-08T04:41:28;4.60;;;3.00;;
16063;SDS011;8136;53.172;8.256;2023-01-08T04:43:54;4.00;;;3.07;;
16063;SDS011;8136;53.172;8.256;2023-01-08T04:46:21;5.23;;;3.63;;
16063;SDS011;8136;53.172;8.256;2023-01-08T04:48:48;3.83;;;2.90;;
16063;SDS011;8136;53.172;8.256;2023-01-08T04:51:14;3.40;;;3.07;;
16063;SDS011;8136;53.172;8.256;2023-01-08T04:53:43;3.47;;;2.93;;
16063;SDS011;8136;53.172;8.256;2023-01-08T04:56:10;4.13;;;2.90;;
16063;SDS011;8136;53.172;8.256;2023-01-08T04:58:37;3.53;;;3.03;;
16063;SDS011;8136;53.172;8.256;2023-01-08T05:01:08;5.57;;;3.20;;
16063;SDS011;8136;53.172;8.256;2023-01-08T05:03:36;3.60;;;3.00;;
16063;SDS011;8136;53.172;8.256;2023-01-08T05:06:03;4.40;;;3.07;;
16063;SDS011;8136;53.172;8.256;2023-01-08T05:08:30;3.57;;;3.03;;
16063;SDS011;8136;53.172;8.256;2023-01-08T05:10:58;4.30;;;3.43;;
16063;SDS011;8136;53.172;8.256;2023-01-08T05:13:25;4.73;;;2.97;;
16063;SDS011;8136;53.172;8.256;2023-01-08T05:15:53;4.63;;;3.10;;
16063;SDS011;8136;53.172;8.256;2023-01-08T05:18:19;3.30;;;2.90;;
16063;SDS011;8136;53.172;8.256;2023-01-08T05:20:46;3.53;;;2.80;;
16063;SDS011;8136;53.172;8.256;2023-01-08T05:23:13;4.97;;;3.07;;
16063;SDS011;8136;53.172;8.256;2023-01-08T05:25:40;5.13;;;3.30;;
16063;SDS011;8136;53.172;8.256;2023-01-08T05:28:08;5.00;;;3.37;;
16063;SDS011;8136;53.172;8.256;2023-01-08T05:30:35;3.30;;;2.73;;
16063;SDS011;8136;53.172;8.256;2023-01-08T05:33:01;4.10;;;2.27;;
16063;SDS011;8136;53.172;8.256;2023-01-08T05:35:28;5.10;;;2.60;;
16063;SDS011;8136;53.172;8.256;2023-01-08T05:37:57;4.13;;;2.80;;
16063;SDS011;8136;53.172;8.256;2023-01-08T05:40:24;3.33;;;2.83;;
16063;SDS011;8136;53.172;8.256;2023-01-08T05:42:51;5.63;;;3.27;;
16063;SDS011;8136;53.172;8.256;2023-01-08T05:45:19;3.50;;;2.90;;
16063;SDS011;8136;53.172;8.256;2023-01-08T05:47:46;3.73;;;2.90;;
16063;SDS011;8136;53.172;8.256;2023-01-08T05:50:13;4.30;;;2.60;;
16063;SDS011;8136;53.172;8.256;2023-01-08T05:52:39;3.90;;;2.73;;
16063;SDS011;8136;53.172;8.256;2023-01-08T05:55:06;4.87;;;3.10;;
16063;SDS011;8136;53.172;8.256;2023-01-08T05:57:34;7.20;;;3.00;;
16063;SDS011;8136;53.172;8.256;2023-01-08T06:00:00;4.47;;;3.13;;
16063;SDS011;8136;53.172;8.256;2023-01-08T06:02:29;4.13;;;3.20;;
16063;SDS011;8136;53.172;8.256;2023-01-08T06:04:56;4.80;;;2.90;;
16063;SDS011;8136;53.172;8.256;2023-01-08T06:07:22;4.07;;;3.17;;
16063;SDS011;8136;53.172;8.256;2023-01-08T06:09:49;3.33;;;2.70;;
16063;SDS011;8136;53.172;8.256;2023-01-08T06:12:16;4.73;;;3.40;;
16063;SDS011;8136;53.172;8.256;2023-01-08T06:14:42;4.20;;;2.97;;
16063;SDS011;8136;53.172;8.256;2023-01-08T06:17:09;5.37;;;2.80;;
16063;SDS011;8136;53.172;8.256;2023-01-08T06:19:37;3.40;;;2.73;;
16063;SDS011;8136;53.172;8.256;2023-01-08T06:22:04;4.73;;;3.47;;
16063;SDS011;8136;53.172;8.256;2023-01-08T06:24:31;3.77;;;3.30;;
16063;SDS011;8136;53.172;8.256;2023-01-08T06:26:57;3.20;;;2.90;;
16063;SDS011;8136;53.172;8.256;2023-01-08T06:29:24;4.00;;;3.20;;
16063;SDS011;8136;53.172;8.256;2023-01-08T06:31:51;4.00;;;2.80;;
16063;SDS011;8136;53.172;8.256;2023-01-08T06:34:17;4.37;;;3.40;;
16063;SDS011;8136;53.172;8.256;2023-01-08T06:36:46;4.17;;;3.53;;
16063;SDS011;8136;53.172;8.256;2023-01-08T06:39:12;4.43;;;3.23;;
16063;SDS011;8136;53.172;8.256;2023-01-08T06:41:39;4.20;;;3.80;;
16063;SDS011;8136;53.172;8.256;2023-01-08T06:44:06;4.03;;;2.83;;
16063;SDS011;8136;53.172;8.256;2023-01-08T06:46:33;5.13;;;3.90;;
16063;SDS011;8136;53.172;8.256;2023-01-08T06:49:04;4.47;;;3.43;;
16063;SDS011;8136;53.172;8.256;2023-01-08T06:51:30;3.73;;;3.43;;
16063;SDS011;8136;53.172;8.256;2023-01-08T06:53:59;4.60;;;3.93;;
16063;SDS011;8136;53.172;8.256;2023-01-08T06:56:25;4.77;;;3.70;;
16063;SDS011;8136;53.172;8.256;2023-01-08T06:58:52;4.30;;;3.70;;
16063;SDS011;8136;53.172;8.256;2023-01-08T07:01:19;6.50;;;3.40;;
16063;SDS011;8136;53.172;8.256;2023-01-08T07:03:47;5.27;;;3.33;;
16063;SDS011;8136;53.172;8.256;2023-01-08T07:06:14;4.63;;;3.83;;
16063;SDS011;8136;53.172;8.256;2023-01-08T07:08:42;4.63;;;3.80;;
16063;SDS011;8136;53.172;8.256;2023-01-08T07:11:10;4.53;;;3.40;;
16063;SDS011;8136;53.172;8.256;2023-01-08T07:13:38;5.53;;;3.60;;
16063;SDS011;8136;53.172;8.256;2023-01-08T07:16:04;4.07;;;3.77;;
16063;SDS011;8136;53.172;8.256;2023-01-08T07:18:32;4.47;;;3.47;;
16063;SDS011;8136;53.172;8.256;2023-01-08T07:21:00;5.53;;;4.00;;
16063;SDS011;8136;53.172;8.256;2023-01-08T07:23:27;5.17;;;4.30;;
16063;SDS011;8136;53.172;8.256;2023-01-08T07:25:54;5.60;;;4.30;;
16063;SDS011;8136;53.172;8.256;2023-01-08T07:28:22;5.67;;;3.93;;
16063;SDS011;8136;53.172;8.256;2023-01-08T07:30:48;5.60;;;4.03;;
16063;SDS011;8136;53.172;8.256;2023-01-08T07:33:15;5.70;;;4.27;;
16063;SDS011;8136;53.172;8.256;2023-01-08T07:35:57;3.53;;;3.23;;
16063;SDS011;8136;53.172;8.256;2023-01-08T07:38:24;5.50;;;3.60;;
16063;SDS011;8136;53.172;8.256;2023-01-08T07:40:51;3.00;;;2.80;;
16063;SDS011;8136;53.172;8.256;2023-01-08T07:43:18;3.50;;;2.90;;
16063;SDS011;8136;53.172;8.256;2023-01-08T07:45:46;4.00;;;2.83;;
16063;SDS011;8136;53.172;8.256;2023-01-08T07:48:13;6.00;;;2.97;;
16063;SDS011;8136;53.172;8.256;2023-01-08T07:50:40;4.57;;;2.87;;
16063;SDS011;8136;53.172;8.256;2023-01-08T07:53:08;4.73;;;2.67;;
16063;SDS011;8136;53.172;8.256;2023-01-08T07:55:35;4.47;;;2.50;;
16063;SDS011;8136;53.172;8.256;2023-01-08T07:58:05;2.70;;;2.20;;
16063;SDS011;8136;53.172;8.256;2023-01-08T08:00:33;4.23;;;2.60;;
16063;SDS011;8136;53.172;8.256;2023-01-08T08:03:02;2.87;;;2.40;;
16063;SDS011;8136;53.172;8.256;2023-01-08T08:05:29;4.13;;;2.10;;
16063;SDS011;8136;53.172;8.256;2023-01-08T08:07:56;3.33;;;2.23;;
16063;SDS011;8136;53.172;8.256;2023-01-08T08:10:23;3.50;;;1.97;;
16063;SDS011;8136;53.172;8.256;2023-01-08T08:12:50;5.57;;;2.17;;
16063;SDS011;8136;53.172;8.256;2023-01-08T08:15:17;2.53;;;1.63;;
16063;SDS011;8136;53.172;8.256;2023-01-08T08:17:44;2.73;;;1.57;;
16063;SDS011;8136;53.172;8.256;2023-01-08T08:20:13;3.50;;;1.90;;
16063;SDS011;8136;53.172;8.256;2023-01-08T08:22:40;2.60;;;1.60;;
16063;SDS011;8136;53.172;8.256;2023-01-08T08:25:07;3.23;;;1.63;;
16063;SDS011;8136;53.172;8.256;2023-01-08T08:27:34;2.73;;;1.60;;
16063;SDS011;8136;53.172;8.256;2023-01-08T08:30:01;2.67;;;1.50;;
16063;SDS011;8136;53.172;8.256;2023-01-08T08:32:28;3.83;;;1.50;;
16063;SDS011;8136;53.172;8.256;2023-01-08T08:34:55;2.40;;;1.87;;
16063;SDS011;8136;53.172;8.256;2023-01-08T08:37:23;3.20;;;1.50;;
16063;SDS011;8136;53.172;8.256;2023-01-08T08:39:50;3.17;;;1.30;;
16063;SDS011;8136;53.172;8.256;2023-01-08T08:42:17;1.80;;;1.37;;
16063;SDS011;8136;53.172;8.256;2023-01-08T08:44:43;4.83;;;1.37;;
16063;SDS011;8136;53.172;8.256;2023-01-08T08:47:11;2.40;;;1.50;;
16063;SDS011;8136;53.172;8.256;2023-01-08T08:49:37;3.00;;;1.47;;
16063;SDS011;8136;53.172;8.256;2023-01-08T08:52:04;2.67;;;1.40;;
16063;SDS011;8136;53.172;8.256;2023-01-08T08:54:33;5.67;;;1.50;;
16063;SDS011;8136;53.172;8.256;2023-01-08T08:57:00;4.90;;;1.33;;
16063;SDS011;8136;53.172;8.256;2023-01-08T08:59:27;1.67;;;1.20;;
16063;SDS011;8136;53.172;8.256;2023-01-08T09:01:54;2.93;;;1.20;;
16063;SDS011;8136;53.172;8.256;2023-01-08T09:04:21;7.07;;;1.33;;
16063;SDS011;8136;53.172;8.256;2023-01-08T09:06:47;3.20;;;1.47;;
16063;SDS011;8136;53.172;8.256;2023-01-08T09:09:14;2.83;;;1.33;;
16063;SDS011;8136;53.172;8.256;2023-01-08T09:11:42;2.40;;;1.20;;
16063;SDS011;8136;53.172;8.256;2023-01-08T09:14:09;4.10;;;1.30;;
16063;SDS011;8136;53.172;8.256;2023-01-08T09:16:36;1.23;;;0.97;;
16063;SDS011;8136;53.172;8.256;2023-01-08T09:19:02;2.13;;;0.93;;
16063;SDS011;8136;53.172;8.256;2023-01-08T09:21:30;2.53;;;1.10;;
16063;SDS011;8136;53.172;8.256;2023-01-08T09:23:57;1.60;;;1.00;;
16063;SDS011;8136;53.172;8.256;2023-01-08T09:26:24;4.13;;;1.20;;
16063;SDS011;8136;53.172;8.256;2023-01-08T09:28:54;3.03;;;1.50;;
16063;SDS011;8136;53.172;8.256;2023-01-08T09:31:22;2.40;;;0.90;;
16063;SDS011;8136;53.172;8.256;2023-01-08T09:33:49;2.83;;;1.20;;
16063;SDS011;8136;53.172;8.256;2023-01-08T09:36:16;2.00;;;1.00;;
16063;SDS011;8136;53.172;8.256;2023-01-08T09:38:43;5.43;;;1.40;;
16063;SDS011;8136;53.172;8.256;2023-01-08T09:41:12;5.40;;;1.00;;
16063;SDS011;8136;53.172;8.256;2023-01-08T09:43:44;3.67;;;1.40;;
16063;SDS011;8136;53.172;8.256;2023-01-08T09:46:15;2.87;;;1.23;;
16063;SDS011;8136;53.172;8.256;2023-01-08T09:48:44;2.10;;;1.07;;
16063;SDS011;8136;53.172;8.256;2023-01-08T09:51:12;3.10;;;1.43;;
16063;SDS011;8136;53.172;8.256;2023-01-08T09:53:40;2.17;;;1.23;;
16063;SDS011;8136;53.172;8.256;2023-01-08T09:56:09;2.90;;;1.60;;
16063;SDS011;8136;53.172;8.256;2023-01-08T09:58:39;4.83;;;2.00;;
16063;SDS011;8136;53.172;8.256;2023-01-08T10:01:08;2.73;;;1.70;;
16063;SDS011;8136;53.172;8.256;2023-01-08T10:03:40;2.03;;;1.50;;
16063;SDS011;8136;53.172;8.256;2023-01-08T10:06:10;3.60;;;1.90;;
16063;SDS011;8136;53.172;8.256;2023-01-08T10:08:38;3.00;;;1.60;;
16063;SDS011;8136;53.172;8.256;2023-01-08T10:11:06;1.40;;;1.30;;
16063;SDS011;8136;53.172;8.256;2023-01-08T10:13:35;3.77;;;1.60;;
16063;SDS011;8136;53.172;8.256;2023-01-08T10:16:04;3.67;;;1.63;;
16063;SDS011;8136;53.172;8.256;2023-01-08T10:18:33;2.03;;;1.40;;
16063;SDS011;8136;53.172;8.256;2023-01-08T10:21:02;2.23;;;1.33;;
16063;SDS011;8136;53.172;8.256;2023-01-08T10:23:29;3.20;;;1.80;;
16063;SDS011;8136;53.172;8.256;2023-01-08T10:25:57;5.10;;;1.70;;
16063;SDS011;8136;53.172;8.256;2023-01-08T10:28:26;2.47;;;1.33;;
16063;SDS011;8136;53.172;8.256;2023-01-08T10:30:57;2.50;;;0.97;;
16063;SDS011;8136;53.172;8.256;2023-01-08T10:33:29;2.50;;;1.17;;
16063;SDS011;8136;53.172;8.256;2023-01-08T10:36:07;2.47;;;1.20;;
16063;SDS011;8136;53.172;8.256;2023-01-08T10:38:38;3.13;;;1.10;;
16063;SDS011;8136;53.172;8.256;2023-01-08T10:41:08;2.67;;;1.20;;
16063;SDS011;8136;53.172;8.256;2023-01-08T10:43:41;2.70;;;1.00;;
16063;SDS011;8136;53.172;8.256;2023-01-08T10:46:16;3.40;;;1.30;;
16063;SDS011;8136;53.172;8.256;2023-01-08T10:48:50;3.27;;;1.17;;
16063;SDS011;8136;53.172;8.256;2023-01-08T10:51:21;1.20;;;0.80;;
16063;SDS011;8136;53.172;8.256;2023-01-08T10:53:49;4.33;;;1.07;;
16063;SDS011;8136;53.172;8.256;2023-01-08T10:56:17;2.23;;;0.80;;
16063;SDS011;8136;53.172;8.256;2023-01-08T10:58:46;2.53;;;0.90;;
16063;SDS011;8136;53.172;8.256;2023-01-08T11:01:15;1.13;;;1.00;;
16063;SDS011;8136;53.172;8.256;2023-01-08T11:03:47;1.43;;;0.93;;
16063;SDS011;8136;53.172;8.256;2023-01-08T11:06:17;2.53;;;0.87;;
16063;SDS011;8136;53.172;8.256;2023-01-08T11:08:48;2.10;;;1.10;;
16063;SDS011;8136;53.172;8.256;2023-01-08T11:11:17;3.53;;;1.20;;
16063;SDS011;8136;53.172;8.256;2023-01-08T11:13:53;2.50;;;1.23;;
16063;SDS011;8136;53.172;8.256;2023-01-08T11:16:28;2.77;;;1.33;;
16063;SDS011;8136;53.172;8.256;2023-01-08T11:18:56;1.83;;;1.23;;
16063;SDS011;8136;53.172;8.256;2023-01-08T11:21:25;3.37;;;1.27;;
16063;SDS011;8136;53.172;8.256;2023-01-08T11:24:01;2.83;;;1.20;;
16063;SDS011;8136;53.172;8.256;2023-01-08T11:26:36;2.10;;;1.43;;
16063;SDS011;8136;53.172;8.256;2023-01-08T11:29:06;5.33;;;1.17;;
16063;SDS011;8136;53.172;8.256;2023-01-08T11:31:40;5.40;;;1.10;;
16063;SDS011;8136;53.172;8.256;2023-01-08T11:34:12;2.83;;;1.33;;
16063;SDS011;8136;53.172;8.256;2023-01-08T11:36:46;3.03;;;1.37;;
16063;SDS011;8136;53.172;8.256;2023-01-08T11:39:15;3.60;;;1.20;;
16063;SDS011;8136;53.172;8.256;2023-01-08T11:41:47;4.97;;;1.20;;
16063;SDS011;8136;53.172;8.256;2023-01-08T11:44:32;6.30;;;1.40;;
16063;SDS011;8136;53.172;8.256;2023-01-08T11:47:06;4.90;;;1.70;;
16063;SDS011;8136;53.172;8.256;2023-01-08T11:49:42;4.90;;;1.20;;
16063;SDS011;8136;53.172;8.256;2023-01-08T11:52:25;2.83;;;1.40;;
16063;SDS011;8136;53.172;8.256;2023-01-08T11:55:12;6.27;;;1.53;;
16063;SDS011;8136;53.172;8.256;2023-01-08T11:58:03;2.77;;;0.93;;
16063;SDS011;8136;53.172;8.256;2023-01-08T12:00:43;5.73;;;1.70;;
16063;SDS011;8136;53.172;8.256;2023-01-08T12:03:20;6.13;;;1.33;;
16063;SDS011;8136;53.172;8.256;2023-01-08T12:05:55;4.07;;;1.17;;
16063;SDS011;8136;53.172;8.256;2023-01-08T12:08:37;5.87;;;1.60;;
16063;SDS011;8136;53.172;8.256;2023-01-08T12:11:18;2.73;;;1.10;;
16063;SDS011;8136;53.172;8.256;2023-01-08T12:14:03;3.63;;;1.47;;
16063;SDS011;8136;53.172;8.256;2023-01-08T12:16:45;5.47;;;1.37;;
16063;SDS011;8136;53.172;8.256;2023-01-08T12:19:28;3.27;;;1.23;;
16063;SDS011;8136;53.172;8.256;2023-01-08T12:22:10;3.97;;;1.50;;
16063;SDS011;8136;53.172;8.256;2023-01-08T12:25:01;2.97;;;1.10;;
16063;SDS011;8136;53.172;8.256;2023-01-08T12:27:49;5.80;;;1.60;;
16063;SDS011;8136;53.172;8.256;2023-01-08T12:30:25;5.43;;;1.27;;
16063;SDS011;8136;53.172;8.256;2023-01-08T12:33:03;10.20;;;1.47;;
16063;SDS011;8136;53.172;8.256;2023-01-08T12:35:35;7.43;;;1.50;;
16063;SDS011;8136;53.172;8.256;2023-01-08T12:38:07;7.47;;;1.60;;
16063;SDS011;8136;53.172;8.256;2023-01-08T12:40:40;4.13;;;1.40;;
16063;SDS011;8136;53.172;8.256;2023-01-08T12:43:10;4.40;;;1.10;;
16063;SDS011;8136;53.172;8.256;2023-01-08T12:45:42;5.30;;;1.20;;
16063;SDS011;8136;53.172;8.256;2023-01-08T12:48:11;4.53;;;1.27;;
16063;SDS011;8136;53.172;8.256;2023-01-08T12:50:45;9.33;;;1.70;;
16063;SDS011;8136;53.172;8.256;2023-01-08T12:53:19;3.87;;;1.70;;
16063;SDS011;8136;53.172;8.256;2023-01-08T12:55:54;4.77;;;1.30;;
16063;SDS011;8136;53.172;8.256;2023-01-08T12:58:30;6.50;;;1.53;;
16063;SDS011;8136;53.172;8.256;2023-01-08T13:01:06;4.73;;;1.10;;
16063;SDS011;8136;53.172;8.256;2023-01-08T13:03:47;6.33;;;1.87;;
16063;SDS011;8136;53.172;8.256;2023-01-08T13:06:15;6.10;;;1.60;;
16063;SDS011;8136;53.172;8.256;2023-01-08T13:08:45;6.47;;;1.87;;
16063;SDS011;8136;53.172;8.256;2023-01-08T13:11:24;3.47;;;1.40;;
16063;SDS011;8136;53.172;8.256;2023-01-08T13:13:59;6.63;;;1.90;;
16063;SDS011;8136;53.172;8.256;2023-01-08T13:16:27;4.40;;;1.47;;
16063;SDS011;8136;53.172;8.256;2023-01-08T13:18:56;2.33;;;1.00;;
16063;SDS011;8136;53.172;8.256;2023-01-08T13:21:31;5.57;;;1.30;;
16063;SDS011;8136;53.172;8.256;2023-01-08T13:24:01;6.90;;;1.13;;
16063;SDS011;8136;53.172;8.256;2023-01-08T13:26:47;4.07;;;1.20;;
16063;SDS011;8136;53.172;8.256;2023-01-08T13:29:22;5.00;;;1.63;;
16063;SDS011;8136;53.172;8.256;2023-01-08T13:31:51;6.83;;;1.33;;
16063;SDS011;8136;53.172;8.256;2023-01-08T13:34:19;3.93;;;1.30;;
16063;SDS011;8136;53.172;8.256;2023-01-08T13:36:54;6.83;;;1.70;;
16063;SDS011;8136;53.172;8.256;2023-01-08T13:39:22;4.77;;;1.30;;
16063;SDS011;8136;53.172;8.256;2023-01-08T13:41:58;6.27;;;1.30;;
16063;SDS011;8136;53.172;8.256;2023-01-08T13:44:27;6.43;;;1.60;;
16063;SDS011;8136;53.172;8.256;2023-01-08T13:46:56;5.03;;;1.43;;
16063;SDS011;8136;53.172;8.256;2023-01-08T13:49:26;3.70;;;1.70;;
16063;SDS011;8136;53.172;8.256;2023-01-08T13:51:58;4.90;;;1.40;;
16063;SDS011;8136;53.172;8.256;2023-01-08T13:54:29;7.70;;;1.80;;
16063;SDS011;8136;53.172;8.256;2023-01-08T13:57:04;6.37;;;1.70;;
16063;SDS011;8136;53.172;8.256;2023-01-08T13:59:38;9.13;;;1.53;;
16063;SDS011;8136;53.172;8.256;2023-01-08T14:02:23;6.67;;;1.47;;
16063;SDS011;8136;53.172;8.256;2023-01-08T14:04:55;5.37;;;1.87;;
16063;SDS011;8136;53.172;8.256;2023-01-08T14:07:22;5.70;;;1.63;;
16063;SDS011;8136;53.172;8.256;2023-01-08T14:09:49;5.17;;;1.60;;
16063;SDS011;8136;53.172;8.256;2023-01-08T14:12:18;6.87;;;1.70;;
16063;SDS011;8136;53.172;8.256;2023-01-08T14:14:49;7.03;;;1.63;;
16063;SDS011;8136;53.172;8.256;2023-01-08T14:17:18;7.20;;;1.60;;
16063;SDS011;8136;53.172;8.256;2023-01-08T14:19:47;7.43;;;1.67;;
16063;SDS011;8136;53.172;8.256;2023-01-08T14:22:16;6.53;;;1.37;;
16063;SDS011;8136;53.172;8.256;2023-01-08T14:24:47;6.97;;;1.93;;
16063;SDS011;8136;53.172;8.256;2023-01-08T14:27:22;4.23;;;1.50;;
16063;SDS011;8136;53.172;8.256;2023-01-08T14:29:51;5.00;;;1.60;;
16063;SDS011;8136;53.172;8.256;2023-01-08T14:32:18;7.20;;;1.50;;
16063;SDS011;8136;53.172;8.256;2023-01-08T14:34:47;4.07;;;1.77;;
16063;SDS011;8136;53.172;8.256;2023-01-08T14:37:15;6.40;;;1.77;;
16063;SDS011;8136;53.172;8.256;2023-01-08T14:39:43;6.93;;;1.63;;
16063;SDS011;8136;53.172;8.256;2023-01-08T14:42:12;6.23;;;2.13;;
16063;SDS011;8136;53.172;8.256;2023-01-08T14:45:02;7.37;;;2.50;;
16063;SDS011;8136;53.172;8.256;2023-01-08T14:47:33;5.47;;;2.10;;
16063;SDS011;8136;53.172;8.256;2023-01-08T14:50:03;6.87;;;1.70;;
16063;SDS011;8136;53.172;8.256;2023-01-08T14:52:32;7.33;;;2.23;;
16063;SDS011;8136;53.172;8.256;2023-01-08T14:55:00;5.80;;;2.37;;
16063;SDS011;8136;53.172;8.256;2023-01-08T14:57:28;5.43;;;2.17;;
16063;SDS011;8136;53.172;8.256;2023-01-08T14:59:56;7.00;;;1.80;;
16063;SDS011;8136;53.172;8.256;2023-01-08T15:02:26;4.93;;;1.77;;
16063;SDS011;8136;53.172;8.256;2023-01-08T15:05:00;5.60;;;2.30;;
16063;SDS011;8136;53.172;8.256;2023-01-08T15:07:28;8.87;;;2.60;;
16063;SDS011;8136;53.172;8.256;2023-01-08T15:09:55;9.63;;;2.77;;
16063;SDS011;8136;53.172;8.256;2023-01-08T15:12:23;11.57;;;2.50;;
16063;SDS011;8136;53.172;8.256;2023-01-08T15:14:52;7.37;;;2.27;;